createdAt,value
2022-09-05T00:00:03.207Z,76.37
2022-09-05T00:01:03.249Z,76.07
2022-09-05T00:02:03.321Z,76.07
2022-09-05T00:03:03.452Z,76.27
2022-09-05T00:04:24.574Z,76.07
2022-09-05T00:05:03.322Z,75.23
2022-09-05T00:06:03.695Z,74.52
2022-09-05T00:07:03.419Z,73.98
2022-09-05T00:08:03.536Z,73.68
2022-09-05T00:09:03.492Z,73.98
2022-09-05T00:10:03.551Z,73.98
2022-09-05T00:11:39.475Z,73.88
2022-09-05T00:12:03.623Z,73.58
2022-09-05T00:13:07.581Z,73.38
2022-09-05T00:14:03.674Z,73.28
2022-09-05T00:15:17.032Z,73.28
2022-09-05T00:16:03.798Z,73.04
2022-09-05T00:17:03.767Z,72.10
2022-09-05T00:20:01.632Z,71.80
2022-09-05T00:24:19.420Z,71.50
2022-09-05T00:24:22.268Z,71.60
2022-09-05T00:24:25.115Z,71.60
2022-09-05T00:24:26.947Z,70.46
2022-09-05T00:24:26.947Z,70.66
2022-09-05T00:24:30.064Z,70.86
2022-09-05T00:25:30.435Z,70.12
2022-09-05T00:26:04.140Z,70.03
2022-09-05T00:27:04.199Z,69.82
2022-09-05T00:28:25.351Z,70.03
2022-09-05T00:29:04.306Z,69.82
2022-09-05T00:31:05.621Z,69.62
2022-09-05T00:31:50.815Z,69.72
2022-09-05T00:32:04.464Z,69.42
2022-09-05T00:33:16.954Z,69.42
2022-09-05T00:34:04.521Z,69.19
2022-09-05T00:35:04.562Z,69.32
2022-09-05T00:36:04.624Z,69.22
2022-09-05T00:37:04.651Z,69.32
2022-09-05T00:38:04.664Z,69.42
2022-09-05T00:39:04.701Z,69.09
2022-09-05T00:40:17.675Z,69.32
2022-09-05T00:41:04.785Z,69.32
2022-09-05T00:42:04.837Z,69.22
2022-09-05T00:43:04.909Z,69.32
2022-09-05T00:44:04.968Z,69.32
2022-09-05T00:45:04.994Z,69.32
2022-09-05T00:46:05.085Z,69.42
2022-09-05T00:47:05.098Z,69.42
2022-09-05T00:48:05.068Z,69.52
2022-09-05T00:49:05.114Z,69.42
2022-09-05T00:50:05.172Z,69.22
2022-09-05T00:51:05.203Z,68.99
2022-09-05T00:52:05.258Z,68.99
2022-09-05T00:53:06.588Z,68.99
2022-09-05T00:54:05.308Z,69.02
2022-09-05T00:55:05.280Z,69.12
2022-09-05T00:56:05.329Z,68.99
2022-09-05T00:57:05.368Z,68.99
2022-09-05T00:58:05.389Z,68.68
2022-09-05T00:59:05.450Z,68.49
2022-09-05T01:00:05.494Z,68.29
2022-09-05T01:01:10.698Z,68.29
2022-09-05T01:02:05.683Z,68.29
2022-09-05T01:03:05.698Z,68.29
2022-09-05T01:04:05.981Z,68.38
2022-09-05T01:05:05.743Z,68.29
2022-09-05T01:06:05.792Z,68.38
2022-09-05T01:07:05.842Z,68.38
2022-09-05T01:08:06.000Z,68.49
2022-09-05T01:09:08.172Z,68.59
2022-09-05T01:10:05.854Z,68.68
2022-09-05T01:11:05.943Z,68.68
2022-09-05T01:12:05.945Z,68.68
2022-09-05T01:13:06.005Z,68.59
2022-09-05T01:14:07.847Z,68.38
2022-09-05T01:15:06.056Z,68.38
2022-09-05T01:16:06.101Z,68.25
2022-09-05T01:17:06.116Z,68.15
2022-09-05T01:18:06.157Z,68.15
2022-09-05T01:19:06.198Z,68.05
2022-09-05T01:20:19.370Z,68.15
2022-09-05T01:21:06.228Z,68.05
2022-09-05T01:22:06.287Z,68.05
2022-09-05T01:23:08.366Z,68.05
2022-09-05T01:24:06.349Z,68.05
2022-09-05T01:25:06.401Z,68.05
2022-09-05T01:26:06.442Z,68.05
2022-09-05T01:27:06.470Z,68.29
2022-09-05T01:29:15.588Z,68.08
2022-09-05T01:29:15.662Z,67.95
2022-09-05T01:30:06.591Z,68.05
2022-09-05T01:31:06.620Z,68.05
2022-09-05T01:32:06.612Z,68.05
2022-09-05T01:33:06.692Z,68.05
2022-09-05T01:34:06.722Z,68.05
2022-09-05T01:35:06.734Z,67.95
2022-09-05T01:36:06.763Z,68.05
2022-09-05T01:37:06.774Z,68.05
2022-09-05T01:38:06.835Z,68.15
2022-09-05T01:39:55.158Z,68.18
2022-09-05T01:40:14.683Z,68.29
2022-09-05T01:41:18.506Z,68.29
2022-09-05T01:42:06.956Z,68.29
2022-09-05T01:43:07.016Z,68.38
2022-09-05T01:44:07.068Z,68.49
2022-09-05T01:45:07.124Z,68.68
2022-09-05T01:46:10.182Z,68.68
2022-09-05T01:47:07.187Z,68.79
2022-09-05T01:48:07.218Z,68.79
2022-09-05T01:49:07.258Z,68.79
2022-09-05T01:50:07.299Z,68.68
2022-09-05T01:51:07.337Z,68.79
2022-09-05T01:52:07.370Z,68.59
2022-09-05T01:53:07.377Z,68.59
2022-09-05T01:54:07.400Z,68.59
2022-09-05T01:55:07.460Z,68.59
2022-09-05T01:56:07.823Z,68.68
2022-09-05T01:57:07.631Z,68.68
2022-09-05T01:58:07.591Z,68.68
2022-09-05T01:59:07.601Z,68.88
2022-09-05T02:00:07.641Z,68.88
2022-09-05T02:01:25.496Z,68.92
2022-09-05T02:02:07.717Z,69.02
2022-09-05T02:03:07.739Z,69.02
2022-09-05T02:04:07.734Z,68.88
2022-09-05T02:05:07.804Z,69.02
2022-09-05T02:06:07.815Z,68.92
2022-09-05T02:07:20.106Z,69.02
2022-09-05T02:08:07.787Z,69.12
2022-09-05T02:09:07.855Z,69.12
2022-09-05T02:10:07.958Z,69.12
2022-09-05T02:11:07.932Z,69.22
2022-09-05T02:12:07.937Z,69.22
2022-09-05T02:13:07.961Z,69.22
2022-09-05T02:14:08.006Z,69.22
2022-09-05T02:15:08.058Z,69.32
2022-09-05T02:16:08.135Z,69.52
2022-09-05T02:17:08.133Z,69.62
2022-09-05T02:18:08.159Z,69.72
2022-09-05T02:19:08.229Z,69.82
2022-09-05T02:20:08.280Z,69.72
2022-09-05T02:21:08.319Z,69.85
2022-09-05T02:22:08.400Z,69.85
2022-09-05T02:23:30.994Z,69.72
2022-09-05T02:24:08.452Z,69.82
2022-09-05T02:26:00.612Z,69.72
2022-09-05T02:26:08.503Z,69.72
2022-09-05T02:27:08.533Z,69.76
2022-09-05T02:28:08.513Z,69.82
2022-09-05T02:29:08.563Z,69.72
2022-09-05T02:30:08.674Z,69.72
2022-09-05T02:31:19.670Z,69.72
2022-09-05T02:32:08.711Z,69.72
2022-09-05T02:33:08.682Z,69.62
2022-09-05T02:34:08.734Z,69.52
2022-09-05T02:35:08.785Z,69.52
2022-09-05T02:36:08.838Z,69.52
2022-09-05T02:37:08.887Z,69.42
2022-09-05T02:43:02.740Z,69.52
2022-09-05T02:45:02.266Z,69.72
2022-09-05T02:45:02.464Z,69.85
2022-09-05T02:45:06.487Z,69.85
2022-09-05T02:45:10.844Z,69.72
2022-09-05T02:45:10.847Z,69.85
2022-09-05T02:45:12.933Z,69.72
2022-09-05T02:45:25.702Z,69.62
2022-09-05T02:46:09.326Z,69.52
2022-09-05T02:47:09.310Z,69.42
2022-09-05T02:48:15.532Z,69.42
2022-09-05T02:49:20.355Z,69.62
2022-09-05T02:52:38.123Z,69.52
2022-09-05T02:57:23.495Z,69.52
2022-09-05T02:57:23.785Z,69.42
2022-09-05T02:57:26.343Z,69.52
2022-09-05T02:57:35.089Z,69.42
2022-09-05T02:57:40.796Z,69.52
2022-09-05T02:58:04.133Z,69.62
2022-09-05T02:58:04.428Z,69.62
2022-09-05T02:58:10.046Z,69.42
2022-09-05T02:59:10.676Z,69.52
2022-09-05T03:00:09.735Z,69.52
2022-09-05T03:01:09.825Z,69.42
2022-09-05T03:02:25.060Z,69.22
2022-09-05T03:03:09.934Z,69.32
2022-09-05T03:04:09.925Z,69.22
2022-09-05T03:05:09.939Z,69.12
2022-09-05T03:06:09.996Z,69.22
2022-09-05T03:07:10.018Z,69.22
2022-09-05T03:08:10.037Z,69.32
2022-09-05T03:09:16.757Z,69.42
2022-09-05T03:10:10.117Z,69.42
2022-09-05T03:11:10.139Z,69.42
2022-09-05T03:12:28.693Z,69.32
2022-09-05T03:13:10.198Z,69.42
2022-09-05T03:14:10.180Z,69.62
2022-09-05T03:15:22.883Z,69.62
2022-09-05T03:16:10.189Z,69.62
2022-09-05T03:17:10.250Z,69.65
2022-09-05T03:18:20.565Z,69.65
2022-09-05T03:19:10.308Z,69.62
2022-09-05T03:20:10.331Z,69.42
2022-09-05T03:21:10.381Z,69.42
2022-09-05T03:22:10.432Z,69.42
2022-09-05T03:23:10.442Z,69.32
2022-09-05T03:24:10.502Z,69.32
2022-09-05T03:25:10.492Z,69.32
2022-09-05T03:26:10.482Z,69.22
2022-09-05T03:27:10.524Z,69.32
2022-09-05T03:28:10.604Z,69.32
2022-09-05T03:29:10.639Z,69.42
2022-09-05T03:30:10.709Z,69.32
2022-09-05T03:31:17.500Z,69.32
2022-09-05T03:32:10.706Z,69.42
2022-09-05T03:33:10.756Z,69.56
2022-09-05T03:34:10.800Z,69.65
2022-09-05T03:35:10.826Z,69.65
2022-09-05T03:36:10.807Z,69.76
2022-09-05T03:37:10.818Z,69.65
2022-09-05T03:38:10.864Z,69.65
2022-09-05T03:39:10.898Z,69.76
2022-09-05T03:40:15.967Z,69.76
2022-09-05T03:41:10.911Z,69.85
2022-09-05T03:42:14.589Z,69.76
2022-09-05T03:43:11.029Z,69.85
2022-09-05T03:44:11.105Z,69.85
2022-09-05T03:45:11.132Z,69.96
2022-09-05T03:46:11.194Z,69.85
2022-09-05T03:47:11.148Z,69.85
2022-09-05T03:48:27.669Z,69.85
2022-09-05T03:50:03.736Z,69.76
2022-09-05T03:53:34.283Z,69.85
2022-09-05T03:57:07.801Z,69.85
2022-09-05T03:57:11.162Z,69.85
2022-09-05T03:57:11.773Z,69.76
2022-09-05T03:57:12.481Z,69.85
2022-09-05T03:57:13.960Z,69.76
2022-09-05T03:57:17.818Z,70.06
2022-09-05T03:57:32.466Z,70.06
2022-09-05T03:58:31.881Z,70.16
2022-09-05T03:59:11.517Z,70.16
2022-09-05T04:00:11.546Z,70.26
2022-09-05T04:02:57.942Z,70.36
2022-09-05T04:03:49.045Z,70.39
2022-09-05T04:08:06.642Z,70.50
2022-09-05T04:08:13.956Z,70.39
2022-09-05T04:08:15.982Z,70.39
2022-09-05T04:08:18.259Z,70.39
2022-09-05T04:08:18.633Z,70.39
2022-09-05T04:08:31.819Z,70.36
2022-09-05T04:09:12.062Z,70.29
2022-09-05T04:10:12.095Z,70.29
2022-09-05T04:11:12.000Z,70.29
2022-09-05T04:12:12.058Z,70.39
2022-09-05T04:13:12.121Z,70.39
2022-09-05T04:14:12.130Z,70.50
2022-09-05T04:15:12.151Z,70.50
2022-09-05T04:16:12.209Z,70.50
2022-09-05T04:17:12.174Z,70.50
2022-09-05T04:18:12.206Z,70.50
2022-09-05T04:19:12.275Z,70.59
2022-09-05T04:20:12.263Z,70.59
2022-09-05T04:21:12.474Z,70.59
2022-09-05T04:22:12.336Z,70.59
2022-09-05T04:23:12.384Z,70.59
2022-09-05T04:24:12.395Z,70.59
2022-09-05T04:25:12.406Z,70.59
2022-09-05T04:26:12.558Z,70.70
2022-09-05T04:27:15.817Z,70.59
2022-09-05T04:28:12.506Z,70.79
2022-09-05T04:29:12.542Z,70.79
2022-09-05T04:30:38.328Z,70.79
2022-09-05T04:31:12.557Z,70.79
2022-09-05T04:32:18.689Z,70.79
2022-09-05T04:33:12.609Z,71.13
2022-09-05T04:34:12.668Z,71.03
2022-09-05T04:35:12.656Z,71.23
2022-09-05T04:36:18.252Z,71.23
2022-09-05T04:37:12.679Z,71.23
2022-09-05T04:38:12.671Z,71.23
2022-09-05T04:39:12.651Z,71.23
2022-09-05T04:40:12.710Z,71.33
2022-09-05T04:41:12.793Z,71.23
2022-09-05T04:42:12.773Z,71.23
2022-09-05T04:43:12.851Z,71.23
2022-09-05T04:44:12.831Z,71.33
2022-09-05T04:45:12.891Z,71.33
2022-09-05T04:46:15.769Z,71.33
2022-09-05T04:47:13.091Z,71.23
2022-09-05T04:48:12.992Z,71.23
2022-09-05T04:49:12.994Z,71.23
2022-09-05T04:50:13.045Z,71.23
2022-09-05T04:51:13.301Z,71.23
2022-09-05T04:52:13.282Z,71.23
2022-09-05T04:53:13.815Z,71.33
2022-09-05T04:54:13.195Z,71.33
2022-09-05T04:55:13.165Z,71.33
2022-09-05T04:56:13.196Z,71.23
2022-09-05T04:57:14.525Z,71.43
2022-09-05T04:58:13.209Z,71.43
2022-09-05T05:00:38.188Z,71.33
2022-09-05T05:05:58.367Z,71.43
2022-09-05T05:06:02.225Z,71.53
2022-09-05T05:06:02.690Z,71.53
2022-09-05T05:06:09.583Z,71.53
2022-09-05T05:06:13.725Z,71.53
2022-09-05T05:06:17.345Z,71.53
2022-09-05T05:07:13.521Z,71.23
2022-09-05T05:08:13.614Z,71.09
2022-09-05T05:09:13.559Z,71.23
2022-09-05T05:13:45.022Z,71.09
2022-09-05T05:14:40.067Z,71.09
2022-09-05T05:17:54.475Z,71.09
2022-09-05T05:17:55.519Z,71.00
2022-09-05T05:17:56.498Z,71.09
2022-09-05T05:18:06.171Z,71.00
2022-09-05T05:18:06.379Z,71.00
2022-09-05T05:18:09.961Z,71.00
2022-09-05T05:18:38.762Z,70.89
2022-09-05T05:19:18.602Z,70.89
2022-09-05T05:20:40.210Z,70.89
2022-09-05T05:21:13.974Z,70.70
2022-09-05T05:22:13.986Z,70.70
2022-09-05T05:23:14.004Z,70.50
2022-09-05T05:24:14.026Z,70.36
2022-09-05T05:25:14.078Z,70.26
2022-09-05T05:26:14.099Z,70.26
2022-09-05T05:27:14.118Z,70.26
2022-09-05T05:28:24.764Z,70.26
2022-09-05T05:29:18.814Z,70.26
2022-09-05T05:30:14.227Z,70.06
2022-09-05T05:31:14.251Z,69.96
2022-09-05T05:32:14.199Z,69.85
2022-09-05T05:33:14.244Z,69.85
2022-09-05T05:34:24.576Z,69.56
2022-09-05T05:35:14.318Z,69.52
2022-09-05T05:36:14.299Z,69.52
2022-09-05T05:37:14.340Z,69.32
2022-09-05T05:38:14.330Z,69.22
2022-09-05T05:39:14.321Z,68.79
2022-09-05T05:45:58.301Z,68.05
2022-09-05T05:46:58.311Z,67.95
2022-09-05T05:47:58.322Z,67.32
2022-09-05T05:48:58.373Z,66.15
2022-09-05T05:49:58.403Z,64.62
2022-09-05T05:50:58.461Z,63.65
2022-09-05T05:52:02.271Z,62.72
2022-09-05T05:52:58.544Z,61.99
2022-09-05T05:53:58.575Z,61.57
2022-09-05T05:55:11.306Z,61.29
2022-09-05T05:55:58.647Z,60.93
2022-09-05T05:56:58.645Z,60.14
2022-09-05T05:57:58.656Z,59.81
2022-09-05T05:58:58.695Z,59.38
2022-09-05T05:59:59.057Z,59.28
2022-09-05T06:00:58.727Z,60.14
2022-09-05T06:01:58.868Z,62.02
2022-09-05T06:03:25.851Z,63.78
2022-09-05T06:03:58.838Z,64.42
2022-09-05T06:05:03.610Z,65.05
2022-09-05T06:05:58.899Z,65.45
2022-09-05T06:06:58.910Z,65.75
2022-09-05T06:08:58.943Z,65.75
2022-09-05T06:10:55.265Z,65.85
2022-09-05T06:14:49.251Z,63.75
2022-09-05T06:14:51.068Z,65.12
2022-09-05T06:14:55.862Z,61.36
2022-09-05T06:14:58.261Z,61.66
2022-09-05T06:14:59.832Z,62.82
2022-09-05T06:15:10.498Z,61.13
2022-09-05T06:16:04.846Z,60.74
2022-09-05T06:16:59.275Z,59.38
2022-09-05T06:17:59.304Z,58.42
2022-09-05T06:18:59.364Z,57.73
2022-09-05T06:20:45.905Z,57.43
2022-09-05T06:22:07.594Z,59.21
2022-09-05T06:22:11.225Z,59.68
2022-09-05T06:22:59.477Z,59.08
2022-09-05T06:23:59.538Z,60.77
2022-09-05T06:25:16.195Z,61.89
2022-09-05T06:25:59.528Z,62.85
2022-09-05T06:26:59.572Z,63.45
2022-09-05T06:28:18.007Z,63.56
2022-09-05T06:28:59.541Z,63.65
2022-09-05T06:29:59.549Z,63.68
2022-09-05T06:31:30.658Z,64.18
2022-09-05T06:31:59.619Z,64.09
2022-09-05T06:32:59.580Z,63.35
2022-09-05T06:33:59.620Z,62.26
2022-09-05T06:35:00.077Z,59.88
2022-09-05T06:36:04.110Z,58.45
2022-09-05T06:36:59.745Z,59.74
2022-09-05T06:37:59.782Z,61.29
2022-09-05T06:38:59.784Z,62.22
2022-09-05T06:39:59.858Z,63.25
2022-09-05T06:41:00.081Z,63.58
2022-09-05T06:41:59.885Z,63.56
2022-09-05T06:42:59.896Z,63.65
2022-09-05T06:43:59.917Z,63.35
2022-09-05T06:45:04.328Z,62.85
2022-09-05T06:46:00.008Z,63.56
2022-09-05T06:47:33.632Z,63.65
2022-09-05T06:48:00.106Z,63.02
2022-09-05T06:49:31.081Z,62.39
2022-09-05T06:50:00.150Z,61.33
2022-09-05T06:51:07.104Z,59.58
2022-09-05T06:52:02.637Z,59.68
2022-09-05T06:53:03.479Z,59.28
2022-09-05T06:54:00.225Z,58.92
2022-09-05T06:55:00.403Z,57.77
2022-09-05T06:56:00.262Z,56.42
2022-09-05T06:57:00.295Z,56.35
2022-09-05T06:58:00.361Z,56.23
2022-09-05T06:59:00.404Z,55.27
2022-09-05T07:00:00.395Z,54.38
2022-09-05T07:01:00.587Z,55.10
2022-09-05T07:02:01.822Z,55.27
2022-09-05T07:03:00.887Z,54.48
2022-09-05T07:04:31.916Z,55.23
2022-09-05T07:05:36.801Z,56.35
2022-09-05T07:06:00.612Z,55.27
2022-09-05T07:07:01.557Z,53.33
2022-09-05T07:08:00.649Z,52.72
2022-09-05T07:09:00.678Z,53.44
2022-09-05T07:10:06.077Z,53.08
2022-09-05T07:11:16.070Z,51.84
2022-09-05T07:12:00.760Z,51.32
2022-09-05T07:13:00.831Z,51.05
2022-09-05T07:14:00.811Z,51.15
2022-09-05T07:15:08.184Z,51.37
2022-09-05T07:16:00.916Z,53.14
2022-09-05T07:17:00.903Z,53.96
2022-09-05T07:18:16.287Z,53.93
2022-09-05T07:19:03.250Z,52.69
2022-09-05T07:20:01.056Z,51.45
2022-09-05T07:21:16.789Z,51.23
2022-09-05T07:22:01.118Z,50.38
2022-09-05T07:23:54.784Z,50.21
2022-09-05T07:24:09.567Z,49.81
2022-09-05T07:25:01.266Z,50.34
2022-09-05T07:26:01.276Z,51.05
2022-09-05T07:27:01.327Z,51.05
2022-09-05T07:28:26.296Z,51.67
2022-09-05T07:29:01.349Z,52.49
2022-09-05T07:30:01.872Z,51.45
2022-09-05T07:31:01.435Z,50.29
2022-09-05T07:32:01.493Z,49.69
2022-09-05T07:33:01.430Z,49.62
2022-09-05T07:34:01.491Z,50.53
2022-09-05T07:35:01.514Z,50.09
2022-09-05T07:36:01.563Z,50.01
2022-09-05T07:37:14.999Z,50.31
2022-09-05T07:38:01.663Z,50.63
2022-09-05T07:39:25.215Z,51.18
2022-09-05T07:40:11.416Z,52.49
2022-09-05T07:41:01.774Z,52.39
2022-09-05T07:42:01.816Z,53.01
2022-09-05T07:43:10.213Z,52.89
2022-09-05T07:44:01.864Z,51.94
2022-09-05T07:45:01.926Z,51.12
2022-09-05T07:46:01.977Z,51.67
2022-09-05T07:47:01.928Z,52.07
2022-09-05T07:48:01.968Z,51.12
2022-09-05T07:49:02.040Z,50.18
2022-09-05T07:51:31.888Z,49.35
2022-09-05T07:54:19.547Z,50.51
2022-09-05T07:56:55.147Z,50.60
2022-09-05T07:56:56.723Z,49.13
2022-09-05T07:57:01.033Z,48.03
2022-09-05T07:57:04.915Z,49.87
2022-09-05T07:57:10.065Z,48.24
2022-09-05T07:58:02.311Z,49.66
2022-09-05T07:59:02.353Z,49.44
2022-09-05T08:00:02.396Z,48.41
2022-09-05T08:01:02.479Z,47.47
2022-09-05T08:02:02.454Z,46.56
2022-09-05T08:03:02.508Z,46.52
2022-09-05T08:04:05.861Z,46.25
2022-09-05T08:05:02.707Z,45.95
2022-09-05T08:06:02.603Z,45.73
2022-09-05T08:07:47.961Z,46.37
2022-09-05T08:08:02.648Z,46.07
2022-09-05T08:09:21.675Z,46.37
2022-09-05T08:10:05.875Z,47.13
2022-09-05T08:11:25.374Z,49.37
2022-09-05T08:12:09.831Z,49.99
2022-09-05T08:13:24.457Z,50.51
2022-09-05T08:14:38.566Z,51.42
2022-09-05T08:15:03.806Z,52.34
2022-09-05T08:16:10.215Z,51.94
2022-09-05T08:17:02.957Z,51.72
2022-09-05T08:18:02.934Z,51.94
2022-09-05T08:19:02.974Z,52.49
2022-09-05T08:20:08.359Z,52.69
2022-09-05T08:21:02.986Z,53.83
2022-09-05T08:22:03.048Z,54.13
2022-09-05T08:23:03.068Z,52.24
2022-09-05T08:24:05.546Z,51.87
2022-09-05T08:25:03.128Z,52.17
2022-09-05T08:26:03.191Z,51.70
2022-09-05T08:27:03.180Z,48.73
2022-09-05T08:28:03.182Z,50.31
2022-09-05T08:29:03.219Z,51.00
2022-09-05T08:30:26.416Z,50.16
2022-09-05T08:31:03.360Z,50.71
2022-09-05T08:32:03.374Z,51.32
2022-09-05T08:33:11.288Z,51.00
2022-09-05T08:34:03.462Z,50.90
2022-09-05T08:35:03.502Z,50.76
2022-09-05T08:36:03.553Z,50.34
2022-09-05T08:37:03.574Z,48.80
2022-09-05T08:38:03.635Z,47.21
2022-09-05T08:39:03.678Z,45.78
2022-09-05T08:40:10.845Z,44.54
2022-09-05T08:41:03.757Z,43.69
2022-09-05T08:42:05.983Z,42.66
2022-09-05T08:46:06.224Z,42.05
2022-09-05T08:46:37.922Z,41.17
2022-09-05T08:46:41.282Z,41.27
2022-09-05T08:46:44.173Z,41.58
2022-09-05T08:47:04.067Z,42.49
2022-09-05T08:48:04.031Z,42.21
2022-09-05T08:49:13.010Z,42.82
2022-09-05T08:50:04.024Z,42.21
2022-09-05T08:51:04.042Z,42.72
2022-09-05T08:52:04.089Z,42.19
2022-09-05T08:53:04.132Z,41.25
2022-09-05T08:54:04.192Z,41.02
2022-09-05T08:55:07.191Z,39.74
2022-09-05T08:56:04.244Z,40.80
2022-09-05T08:57:04.244Z,41.61
2022-09-05T08:58:04.236Z,41.31
2022-09-05T08:59:28.349Z,41.31
2022-09-05T09:00:20.782Z,41.90
2022-09-05T09:01:04.539Z,42.02
2022-09-05T09:02:32.914Z,42.85
2022-09-05T09:03:05.025Z,42.51
2022-09-05T09:04:04.460Z,42.49
2022-09-05T09:05:04.459Z,41.90
2022-09-05T09:06:13.523Z,41.66
2022-09-05T09:07:47.522Z,41.03
2022-09-05T09:08:04.560Z,40.74
2022-09-05T09:09:05.732Z,40.37
2022-09-05T09:10:04.650Z,39.66
2022-09-05T09:11:04.657Z,40.25
2022-09-05T09:12:04.658Z,40.29
2022-09-05T09:13:04.715Z,40.86
2022-09-05T09:14:06.277Z,40.35
2022-09-05T09:15:04.784Z,39.53
2022-09-05T09:16:04.991Z,39.35
2022-09-05T09:17:04.854Z,40.58
2022-09-05T09:18:06.415Z,40.98
2022-09-05T09:19:04.936Z,41.08
2022-09-05T09:20:04.984Z,40.55
2022-09-05T09:21:05.037Z,40.25
2022-09-05T09:22:05.088Z,39.84
2022-09-05T09:23:05.144Z,39.72
2022-09-05T09:24:05.148Z,39.53
2022-09-05T09:25:14.274Z,39.53
2022-09-05T09:26:05.200Z,39.33
2022-09-05T09:27:05.252Z,40.08
2022-09-05T09:28:47.834Z,41.39
2022-09-05T09:29:05.302Z,40.90
2022-09-05T09:30:05.312Z,42.02
2022-09-05T09:31:05.433Z,42.61
2022-09-05T09:32:05.351Z,41.39
2022-09-05T09:33:05.421Z,40.25
2022-09-05T09:34:05.426Z,39.76
2022-09-05T09:35:05.662Z,39.72
2022-09-05T09:36:08.014Z,39.20
2022-09-05T09:37:05.546Z,39.54
2022-09-05T09:38:05.545Z,41.08
2022-09-05T09:39:14.461Z,41.19
2022-09-05T09:40:05.643Z,41.68
2022-09-05T09:41:05.706Z,40.76
2022-09-05T09:42:05.718Z,39.74
2022-09-05T09:43:07.247Z,39.74
2022-09-05T09:44:05.760Z,39.43
2022-09-05T09:45:27.573Z,39.27
2022-09-05T09:46:05.901Z,40.09
2022-09-05T09:47:05.830Z,40.09
2022-09-05T09:48:05.832Z,39.88
2022-09-05T09:49:09.653Z,39.94
2022-09-05T09:50:05.881Z,38.96
2022-09-05T09:51:06.302Z,39.27
2022-09-05T09:52:05.947Z,39.37
2022-09-05T09:53:05.954Z,39.06
2022-09-05T09:54:05.963Z,39.37
2022-09-05T09:55:05.982Z,39.45
2022-09-05T09:56:06.817Z,39.78
2022-09-05T09:57:06.018Z,40.80
2022-09-05T09:58:06.006Z,40.39
2022-09-05T09:59:06.036Z,40.29
2022-09-05T10:00:06.056Z,40.88
2022-09-05T10:01:20.046Z,39.69
2022-09-05T10:02:26.771Z,39.37
2022-09-05T10:06:43.726Z,38.98
2022-09-05T10:08:30.590Z,39.39
2022-09-05T10:10:35.506Z,39.59
2022-09-05T10:10:47.500Z,39.35
2022-09-05T10:10:49.223Z,39.27
2022-09-05T10:10:53.746Z,38.51
2022-09-05T10:11:08.007Z,39.23
2022-09-05T10:11:52.972Z,39.11
2022-09-05T10:12:32.329Z,39.22
2022-09-05T10:13:32.330Z,39.27
2022-09-05T10:14:49.846Z,39.07
2022-09-05T10:15:32.722Z,38.35
2022-09-05T10:29:37.643Z,38.68
2022-09-05T10:32:13.579Z,38.53
2022-09-05T10:34:02.978Z,39.76
2022-09-05T10:35:02.828Z,40.66
2022-09-05T10:35:08.969Z,40.43
2022-09-05T10:35:22.834Z,40.09
2022-09-05T10:35:28.388Z,38.60
2022-09-05T10:36:28.057Z,39.00
2022-09-05T10:37:28.051Z,38.37
2022-09-05T10:38:28.072Z,37.59
2022-09-05T10:39:28.122Z,37.49
2022-09-05T10:40:28.131Z,37.43
2022-09-05T10:41:28.132Z,37.92
2022-09-05T10:42:28.134Z,38.68
2022-09-05T10:43:28.163Z,38.59
2022-09-05T10:44:28.146Z,38.98
2022-09-05T10:45:33.388Z,39.51
2022-09-05T10:46:49.807Z,40.09
2022-09-05T10:47:28.385Z,40.09
2022-09-05T10:48:28.356Z,40.66
2022-09-05T10:49:30.302Z,40.01
2022-09-05T10:50:28.391Z,40.09
2022-09-05T10:51:28.492Z,39.72
2022-09-05T10:52:28.496Z,40.21
2022-09-05T10:53:36.856Z,40.19
2022-09-05T10:54:28.559Z,40.31
2022-09-05T10:55:28.583Z,40.61
2022-09-05T10:56:28.850Z,40.08
2022-09-05T10:57:28.701Z,39.86
2022-09-05T10:59:20.678Z,39.69
2022-09-05T11:02:21.647Z,39.78
2022-09-05T11:02:22.513Z,40.00
2022-09-05T11:02:27.083Z,40.11
2022-09-05T11:02:38.522Z,41.43
2022-09-05T11:03:29.100Z,41.43
2022-09-05T11:04:28.846Z,41.58
2022-09-05T11:05:28.940Z,40.90
2022-09-05T11:06:28.904Z,41.43
2022-09-05T11:07:29.782Z,41.55
2022-09-05T11:08:28.936Z,42.14
2022-09-05T11:09:28.928Z,41.63
2022-09-05T11:10:28.989Z,41.21
2022-09-05T11:11:34.808Z,40.82
2022-09-05T11:12:29.039Z,40.82
2022-09-05T11:13:29.097Z,40.74
2022-09-05T11:14:29.091Z,40.45
2022-09-05T11:15:29.154Z,40.94
2022-09-05T11:16:29.265Z,40.70
2022-09-05T11:17:29.231Z,40.31
2022-09-05T11:18:30.352Z,40.61
2022-09-05T11:19:29.233Z,40.31
2022-09-05T11:20:34.874Z,39.88
2022-09-05T11:21:29.352Z,39.47
2022-09-05T11:22:29.404Z,39.07
2022-09-05T11:23:29.436Z,39.49
2022-09-05T11:24:29.463Z,40.00
2022-09-05T11:25:39.681Z,39.82
2022-09-05T11:26:29.585Z,40.01
2022-09-05T11:27:29.517Z,40.31
2022-09-05T11:28:29.517Z,40.09
2022-09-05T11:29:29.544Z,39.51
2022-09-05T11:30:31.888Z,39.61
2022-09-05T11:31:36.254Z,40.62
2022-09-05T11:36:35.282Z,41.24
2022-09-05T11:39:47.013Z,41.58
2022-09-05T11:39:55.847Z,40.61
2022-09-05T11:39:59.544Z,41.63
2022-09-05T11:40:02.118Z,40.48
2022-09-05T11:40:06.904Z,39.78
2022-09-05T11:40:08.638Z,40.68
2022-09-05T11:40:09.884Z,40.61
2022-09-05T11:40:47.698Z,39.78
2022-09-05T11:41:30.007Z,40.09
2022-09-05T11:42:29.974Z,40.41
2022-09-05T11:43:29.964Z,40.70
2022-09-05T11:44:30.005Z,41.41
2022-09-05T11:45:30.021Z,41.84
2022-09-05T11:46:30.832Z,41.74
2022-09-05T11:47:37.081Z,41.41
2022-09-05T11:48:30.096Z,40.90
2022-09-05T11:49:30.118Z,39.90
2022-09-05T11:50:30.161Z,39.70
2022-09-05T11:51:33.854Z,39.80
2022-09-05T11:52:30.199Z,39.49
2022-09-05T11:53:30.323Z,39.49
2022-09-05T11:54:30.241Z,39.17
2022-09-05T11:55:30.251Z,38.90
2022-09-05T11:56:30.284Z,38.88
2022-09-05T11:57:33.396Z,38.90
2022-09-05T11:59:33.465Z,40.03
2022-09-05T12:00:32.673Z,39.82
2022-09-05T12:01:40.983Z,39.31
2022-09-05T12:02:30.454Z,39.09
2022-09-05T12:03:58.071Z,39.53
2022-09-05T12:04:31.493Z,39.84
2022-09-05T12:05:47.457Z,40.43
2022-09-05T12:06:30.593Z,39.82
2022-09-05T12:07:32.144Z,39.62
2022-09-05T12:08:30.651Z,39.41
2022-09-05T12:09:30.644Z,39.43
2022-09-05T12:10:47.361Z,39.84
2022-09-05T12:11:30.659Z,40.33
2022-09-05T12:12:41.561Z,40.25
2022-09-05T12:13:30.720Z,40.43
2022-09-05T12:14:30.751Z,39.82
2022-09-05T12:15:30.751Z,39.72
2022-09-05T12:16:30.804Z,39.09
2022-09-05T12:17:35.430Z,38.78
2022-09-05T12:18:30.996Z,38.47
2022-09-05T12:19:30.943Z,37.39
2022-09-05T12:20:32.721Z,37.71
2022-09-05T12:21:31.660Z,38.31
2022-09-05T12:22:30.949Z,38.84
2022-09-05T12:23:56.615Z,39.22
2022-09-05T12:25:16.184Z,38.02
2022-09-05T12:27:38.933Z,38.74
2022-09-05T12:27:41.241Z,38.33
2022-09-05T12:27:42.717Z,38.60
2022-09-05T12:29:28.055Z,39.14
2022-09-05T12:29:35.323Z,38.70
2022-09-05T12:30:42.471Z,38.21
2022-09-05T12:32:31.229Z,38.54
2022-09-05T12:32:36.634Z,37.65
2022-09-05T12:36:02.718Z,38.27
2022-09-05T12:36:04.871Z,37.86
2022-09-05T12:36:06.559Z,36.84
2022-09-05T12:40:05.223Z,36.82
2022-09-05T12:40:15.838Z,36.51
2022-09-05T12:40:53.735Z,39.64
2022-09-05T12:41:33.647Z,36.41
2022-09-05T12:41:35.011Z,37.23
2022-09-05T12:41:38.396Z,36.53
2022-09-05T12:41:40.751Z,37.43
2022-09-05T12:42:39.980Z,37.74
2022-09-05T12:44:38.219Z,37.84
2022-09-05T12:44:41.270Z,37.43
2022-09-05T12:45:37.309Z,36.90
2022-09-05T12:46:31.627Z,36.22
2022-09-05T12:47:31.677Z,35.65
2022-09-05T12:48:38.886Z,35.45
2022-09-05T12:49:36.085Z,35.37
2022-09-05T12:50:31.821Z,34.77
2022-09-05T12:51:47.030Z,34.84
2022-09-05T12:52:31.880Z,35.04
2022-09-05T12:53:32.811Z,34.83
2022-09-05T12:54:34.240Z,35.01
2022-09-05T12:55:32.842Z,35.21
2022-09-05T12:59:17.544Z,35.21
2022-09-05T13:02:22.128Z,35.69
2022-09-05T13:03:02.643Z,35.38
2022-09-05T13:03:04.768Z,34.80
2022-09-05T13:03:07.652Z,35.16
2022-09-05T13:03:08.573Z,35.52
2022-09-05T13:03:13.812Z,35.73
2022-09-05T13:03:32.935Z,34.57
2022-09-05T13:04:33.425Z,34.26
2022-09-05T13:05:32.316Z,34.34
2022-09-05T13:06:32.358Z,34.33
2022-09-05T13:07:32.198Z,34.11
2022-09-05T13:08:32.224Z,33.40
2022-09-05T13:10:02.683Z,32.60
2022-09-05T13:12:24.806Z,32.89
2022-09-05T13:14:52.745Z,32.23
2022-09-05T13:14:54.746Z,32.81
2022-09-05T13:14:56.949Z,32.82
2022-09-05T13:14:58.328Z,32.92